Time;durP1;ratioP1;P1;durP2;ratioP2;P2;SDS_P1;SDS_P2;PMS_P1;PMS_P2;Temp;Humidity;BMP_temperature;BMP_pressure;BME280_temperature;BME280_humidity;BME280_pressure;Samples;Min_cycle;Max_cycle;Signal;HPM_P1;HPM_P2
2022/07/22 00:00:12;;;;;;;8.25;5.60;;;;;;;21.65;72.20;101267.69;5077427;28;20060;-72
2022/07/22 00:02:38;;;;;;;11.68;5.32;;;;;;;21.71;71.89;101271.63;5069863;28;20488;-72
2022/07/22 00:05:06;;;;;;;8.80;5.60;;;;;;;21.81;71.84;101280.47;5086754;28;20044;-72
2022/07/22 00:07:34;;;;;;;7.70;5.15;;;;;;;22.03;70.87;101274.91;5068842;28;20065;-72
2022/07/22 00:10:00;;;;;;;6.13;5.28;;;;;;;22.10;70.53;101270.69;5052081;28;20755;-72
2022/07/22 00:12:27;;;;;;;5.93;4.82;;;;;;;22.14;70.22;101282.78;5058180;28;20052;-72
2022/07/22 00:14:53;;;;;;;6.75;4.90;;;;;;;22.11;70.59;101272.41;5073555;28;20090;-72
2022/07/22 00:17:19;;;;;;;8.82;5.30;;;;;;;21.94;70.93;101280.25;5058326;28;20044;-72
2022/07/22 00:19:46;;;;;;;8.02;6.07;;;;;;;21.79;71.64;101285.97;5066525;28;20045;-72
2022/07/22 00:22:12;;;;;;;9.85;6.43;;;;;;;21.79;71.31;101285.13;5068337;28;20041;-72
2022/07/22 00:24:40;;;;;;;8.23;5.88;;;;;;;21.79;71.30;101291.31;5067255;28;20044;-72
2022/07/22 00:27:07;;;;;;;7.72;5.50;;;;;;;21.75;71.62;101281.91;5067457;28;20098;-72
2022/07/22 00:29:33;;;;;;;8.65;5.50;;;;;;;21.86;71.21;101278.25;5066208;28;20044;-72
2022/07/22 00:31:59;;;;;;;8.40;5.60;;;;;;;21.75;71.39;101294.41;5066859;28;20089;-72
2022/07/22 00:34:26;;;;;;;8.10;5.65;;;;;;;21.74;71.50;101288.22;5067366;28;20059;-72
2022/07/22 00:36:52;;;;;;;8.23;5.93;;;;;;;21.39;72.71;101289.66;5066405;28;20462;-71
2022/07/22 00:39:18;;;;;;;9.95;5.88;;;;;;;21.44;72.59;101290.09;5058414;28;20040;-71
2022/07/22 00:41:46;;;;;;;10.30;5.70;;;;;;;21.18;72.94;101295.88;5046865;28;20491;-71
2022/07/22 00:44:12;;;;;;;7.15;5.65;;;;;;;21.15;73.86;101292.66;5047995;28;20049;-72
2022/07/22 00:46:39;;;;;;;7.80;5.75;;;;;;;21.32;73.44;101287.53;5058945;28;20515;-72
2022/07/22 00:49:07;;;;;;;8.80;6.05;;;;;;;21.61;72.56;101289.44;5065203;28;20047;-72
2022/07/22 00:51:34;;;;;;;9.85;6.57;;;;;;;21.34;72.59;101279.41;5066771;28;20068;-72
2022/07/22 00:54:03;;;;;;;10.20;6.00;;;;;;;21.11;73.21;101277.88;5059920;28;20580;-72
2022/07/22 00:56:29;;;;;;;9.98;6.32;;;;;;;20.94;74.61;101283.81;5057380;28;20052;-72
2022/07/22 00:59:00;;;;;;;8.50;6.28;;;;;;;20.92;74.31;101283.09;5065398;28;20070;-72
2022/07/22 01:01:27;;;;;;;6.85;5.65;;;;;;;21.27;73.33;101273.75;5066307;28;20060;-72
2022/07/22 01:03:53;;;;;;;8.68;6.10;;;;;;;21.23;73.29;101285.69;5067832;28;20049;-72
2022/07/22 01:06:20;;;;;;;9.18;5.75;;;;;;;21.32;72.54;101278.69;5060971;28;20412;-72
2022/07/22 01:08:46;;;;;;;6.72;5.65;;;;;;;21.37;72.40;101276.44;5063572;28;20145;-71
2022/07/22 01:11:15;;;;;;;9.20;6.50;;;;;;;21.37;72.03;101281.78;5067030;28;20044;-72
2022/07/22 01:13:43;;;;;;;8.80;5.28;;;;;;;21.15;72.92;101279.31;5065723;28;20041;-72
2022/07/22 01:16:12;;;;;;;8.82;5.95;;;;;;;21.24;72.81;101273.19;5066419;28;20041;-71
2022/07/22 01:18:39;;;;;;;9.75;6.38;;;;;;;21.27;72.83;101270.25;5067171;28;20050;-71
2022/07/22 01:21:08;;;;;;;8.85;5.95;;;;;;;21.44;72.40;101272.25;5065165;28;20496;-71
2022/07/22 01:23:34;;;;;;;11.82;6.53;;;;;;;21.45;71.91;101273.97;5065810;28;20048;-71
2022/07/22 01:26:02;;;;;;;9.75;5.93;;;;;;;21.38;72.21;101272.81;5066012;28;20104;-71
2022/07/22 01:28:29;;;;;;;12.30;6.65;;;;;;;21.49;71.43;101279.88;5067445;28;20079;-71
2022/07/22 01:30:55;;;;;;;8.93;6.03;;;;;;;21.46;71.79;101281.00;5066296;28;20052;-71
2022/07/22 01:33:22;;;;;;;7.53;5.90;;;;;;;21.60;71.22;101275.25;5050151;28;20075;-71
2022/07/22 01:35:50;;;;;;;9.05;6.13;;;;;;;21.63;71.04;101274.97;5046922;28;20055;-71
2022/07/22 01:38:18;;;;;;;8.73;6.10;;;;;;;21.60;70.93;101272.59;5046157;28;20550;-71
2022/07/22 01:40:46;;;;;;;6.50;5.75;;;;;;;21.71;70.74;101269.81;5045906;28;20068;-72
2022/07/22 01:43:15;;;;;;;7.72;5.88;;;;;;;21.47;71.17;101276.50;5047342;28;20064;-72
2022/07/22 01:45:42;;;;;;;11.80;6.40;;;;;;;21.72;70.53;101276.00;5046878;28;20131;-72
2022/07/22 01:48:08;;;;;;;8.98;6.20;;;;;;;21.79;70.04;101271.78;5063204;28;20105;-72
2022/07/22 01:50:34;;;;;;;9.25;6.10;;;;;;;21.77;70.42;101277.25;5065902;28;20040;-72
2022/07/22 01:53:01;;;;;;;7.85;5.65;;;;;;;21.52;71.18;101274.25;5065850;28;20048;-72
2022/07/22 01:55:29;;;;;;;7.70;6.15;;;;;;;21.88;70.14;101272.78;5066067;28;20075;-72
2022/07/22 01:57:55;;;;;;;9.13;5.93;;;;;;;22.00;69.33;101274.34;5066621;28;20044;-72
2022/07/22 02:00:21;;;;;;;9.15;6.43;;;;;;;21.74;70.17;101277.53;5065108;28;20550;-72
2022/07/22 02:02:48;;;;;;;8.18;6.38;;;;;;;21.70;70.30;101280.59;5057850;27;20404;-72
2022/07/22 02:05:14;;;;;;;10.63;6.45;;;;;;;21.57;70.89;101283.53;5047113;28;20466;-72
2022/07/22 02:07:41;;;;;;;12.18;7.40;;;;;;;21.21;72.33;101278.78;5045724;28;20049;-72
2022/07/22 02:10:08;;;;;;;9.32;6.25;;;;;;;21.28;71.99;101278.13;5046402;28;20559;-72
2022/07/22 02:12:36;;;;;;;11.80;6.90;;;;;;;21.57;71.16;101282.69;5066586;28;20053;-72
2022/07/22 02:15:03;;;;;;;8.13;6.45;;;;;;;21.80;69.90;101276.97;5067616;28;20044;-71
2022/07/22 02:17:29;;;;;;;7.60;6.07;;;;;;;22.04;69.36;101271.28;5069184;28;20487;-71
2022/07/22 02:19:56;;;;;;;9.00;6.30;;;;;;;22.15;68.66;101263.13;5064923;28;20106;-72
2022/07/22 02:22:22;;;;;;;9.57;6.95;;;;;;;21.94;69.08;101267.75;5065467;28;20045;-72
2022/07/22 02:24:49;;;;;;;10.95;7.13;;;;;;;21.61;70.09;101276.97;5067073;28;20106;-72
2022/07/22 02:27:15;;;;;;;10.45;7.20;;;;;;;21.68;69.93;101277.25;5045446;28;20041;-72
2022/07/22 02:29:43;;;;;;;10.77;6.57;;;;;;;22.05;68.84;101264.97;5069992;28;20419;-72
2022/07/22 02:32:09;;;;;;;9.35;6.50;;;;;;;21.98;68.94;101266.50;5057983;28;20094;-72
2022/07/22 02:34:36;;;;;;;8.38;6.63;;;;;;;21.92;69.35;101266.19;5065050;28;20048;-72
2022/07/22 02:37:02;;;;;;;8.95;6.20;;;;;;;21.65;69.97;101272.19;5065731;28;20495;-72
2022/07/22 02:39:29;;;;;;;9.25;6.35;;;;;;;21.60;69.53;101271.75;5065143;28;20052;-72
2022/07/22 02:41:55;;;;;;;10.30;6.55;;;;;;;21.44;70.49;101271.41;5064498;28;20041;-71
2022/07/22 02:44:21;;;;;;;9.70;6.43;;;;;;;21.70;69.56;101280.59;5075046;27;20048;-72
2022/07/22 02:46:49;;;;;;;11.35;6.43;;;;;;;21.75;69.34;101273.88;5068829;28;20064;-72
2022/07/22 02:49:15;;;;;;;7.15;5.47;;;;;;;21.84;68.66;101269.53;5064041;28;20118;-72
2022/07/22 02:51:42;;;;;;;8.88;5.93;;;;;;;21.90;68.58;101269.00;5065604;28;20048;-72
2022/07/22 02:54:08;;;;;;;7.80;6.22;;;;;;;21.83;68.97;101279.38;5066450;27;20040;-72
2022/07/22 02:56:34;;;;;;;7.32;5.50;;;;;;;21.62;69.89;101278.63;5065216;28;20094;-72
2022/07/22 02:59:01;;;;;;;8.65;5.80;;;;;;;21.62;69.51;101267.09;5063019;28;20041;-72
2022/07/22 03:01:27;;;;;;;8.13;5.97;;;;;;;21.61;69.39;101268.09;5065019;28;20048;-71
2022/07/22 03:03:55;;;;;;;8.70;6.35;;;;;;;21.98;68.51;101266.50;5066469;28;20040;-72
2022/07/22 03:06:21;;;;;;;7.95;5.88;;;;;;;21.61;69.22;101270.78;5068755;28;20508;-72
2022/07/22 03:08:48;;;;;;;9.13;5.80;;;;;;;21.31;70.54;101269.84;5086630;27;20052;-72
2022/07/22 03:11:14;;;;;;;7.78;5.70;;;;;;;21.30;70.38;101268.16;5088516;27;20079;-72
2022/07/22 03:13:40;;;;;;;8.38;5.75;;;;;;;21.33;70.10;101272.38;5088581;27;20048;-72
2022/07/22 03:16:07;;;;;;;7.82;5.22;;;;;;;21.32;70.12;101273.38;5068101;28;20511;-72
2022/07/22 03:18:34;;;;;;;7.35;5.30;;;;;;;21.26;70.09;101277.41;5066413;28;20044;-72
2022/07/22 03:21:02;;;;;;;7.45;5.13;;;;;;;21.20;70.56;101272.63;5070142;28;20048;-72
2022/07/22 03:23:28;;;;;;;9.57;5.30;;;;;;;21.48;69.33;101273.69;5049397;28;20462;-72
2022/07/22 03:25:56;;;;;;;8.07;5.32;;;;;;;21.40;69.84;101268.16;5048134;28;20497;-72
2022/07/22 03:28:22;;;;;;;8.18;5.43;;;;;;;21.61;69.29;101268.09;5049551;28;20052;-72
2022/07/22 03:30:48;;;;;;;6.95;5.30;;;;;;;21.65;68.88;101264.19;5046872;28;20103;-72
2022/07/22 03:33:15;;;;;;;15.40;5.55;;;;;;;21.49;69.72;101277.19;5070160;27;20040;-72
2022/07/22 03:35:41;;;;;;;8.93;5.18;;;;;;;21.84;68.31;101272.19;5068127;28;20052;-72
2022/07/22 03:38:09;;;;;;;7.13;5.25;;;;;;;21.49;69.62;101275.38;5068286;28;20503;-72
2022/07/22 03:40:35;;;;;;;9.15;5.75;;;;;;;21.22;70.66;101283.97;5068415;28;20118;-72
2022/07/22 03:43:01;;;;;;;7.78;5.28;;;;;;;21.43;70.13;101273.25;5070045;28;20117;-72
2022/07/22 03:45:28;;;;;;;7.32;5.22;;;;;;;21.55;69.32;101282.81;5060796;28;20068;-72
2022/07/22 03:47:57;;;;;;;9.23;5.30;;;;;;;21.54;69.16;101272.31;5072335;27;20044;-72
2022/07/22 03:50:24;;;;;;;9.32;5.93;;;;;;;21.73;68.83;101269.66;5061328;28;20052;-72
2022/07/22 03:52:50;;;;;;;7.07;5.65;;;;;;;21.59;69.28;101268.22;5069472;28;20040;-72
2022/07/22 03:55:18;;;;;;;8.90;5.75;;;;;;;21.51;69.68;101272.53;5067797;28;20734;-72
2022/07/22 03:57:44;;;;;;;9.40;5.32;;;;;;;21.70;69.10;101270.78;5068795;28;20094;-72
2022/07/22 04:00:11;;;;;;;6.95;4.93;;;;;;;21.63;69.05;101276.81;5066712;28;20064;-72
2022/07/22 04:02:37;;;;;;;9.05;5.55;;;;;;;21.91;68.38;101272.53;5071236;28;20052;-72
2022/07/22 04:05:05;;;;;;;7.15;5.32;;;;;;;22.07;67.36;101272.81;5089055;28;20044;-72
2022/07/22 04:07:31;;;;;;;7.97;5.57;;;;;;;22.12;67.81;101273.25;5055345;28;20075;-72
2022/07/22 04:10:04;;;;;;;7.18;5.25;;;;;;;22.43;66.82;101274.75;5065898;28;20484;-72
2022/07/22 04:12:33;;;;;;;8.98;6.20;;;;;;;22.00;67.56;101277.03;5067527;28;20056;-72
2022/07/22 04:14:59;;;;;;;8.20;5.68;;;;;;;22.02;67.67;101264.41;5057439;28;20488;-72
2022/07/22 04:17:25;;;;;;;8.65;5.57;;;;;;;21.74;68.43;101276.69;5060264;28;20504;-72
2022/07/22 04:19:52;;;;;;;10.05;5.68;;;;;;;21.84;68.17;101282.88;5056045;28;20126;-72
2022/07/22 04:22:19;;;;;;;7.97;5.03;;;;;;;22.04;67.43;101275.75;5068348;28;20082;-72
2022/07/22 04:24:45;;;;;;;8.27;5.50;;;;;;;22.04;67.11;101287.28;5068991;28;20392;-72
2022/07/22 04:27:11;;;;;;;7.82;5.30;;;;;;;21.50;69.74;101285.06;5067615;28;20510;-72
2022/07/22 04:29:39;;;;;;;6.00;4.97;;;;;;;21.11;70.98;101292.06;5059948;28;20057;-72
2022/07/22 04:32:06;;;;;;;5.93;4.88;;;;;;;21.28;70.78;101288.78;5051520;28;20545;-72
2022/07/22 04:34:33;;;;;;;7.03;4.85;;;;;;;21.29;71.28;101298.47;5054622;28;20073;-72
2022/07/22 04:36:59;;;;;;;7.03;5.43;;;;;;;21.58;70.17;101297.75;5067927;28;20070;-72
2022/07/22 04:39:25;;;;;;;10.80;7.20;;;;;;;21.16;71.69;101289.00;5066515;28;20123;-72
2022/07/22 04:41:52;;;;;;;12.07;8.02;;;;;;;21.05;72.42;101291.72;5068806;28;20400;-72
2022/07/22 04:44:18;;;;;;;12.30;8.60;;;;;;;21.00;73.08;101301.94;5067786;28;20101;-72
2022/07/22 04:46:46;;;;;;;14.40;9.38;;;;;;;21.27;71.72;101302.25;5066402;28;20457;-72
2022/07/22 04:49:12;;;;;;;13.25;8.95;;;;;;;21.35;71.15;101299.75;5081227;28;20492;-72
2022/07/22 04:51:38;;;;;;;16.00;8.65;;;;;;;21.52;70.18;101293.78;5080734;28;20617;-72
2022/07/22 04:54:05;;;;;;;12.68;7.57;;;;;;;21.94;69.09;101298.97;5067593;28;20097;-72
2022/07/22 04:56:31;;;;;;;13.93;6.63;;;;;;;21.84;68.83;101288.22;5067179;28;20101;-72
2022/07/22 04:58:57;;;;;;;9.10;6.05;;;;;;;22.20;67.57;101289.41;5065586;28;20102;-72
2022/07/22 05:01:24;;;;;;;9.27;5.80;;;;;;;22.27;67.68;101290.53;5066230;28;20074;-71
2022/07/22 05:03:52;;;;;;;7.38;5.60;;;;;;;22.13;67.59;101289.13;5067330;28;20045;-71
2022/07/22 05:06:18;;;;;;;6.40;5.10;;;;;;;22.31;67.46;101291.94;5062512;28;20069;-71
2022/07/22 05:08:45;;;;;;;7.72;4.85;;;;;;;22.54;66.50;101289.81;5060926;28;20129;-71
2022/07/22 05:11:11;;;;;;;7.50;5.00;;;;;;;22.57;66.62;101292.19;5082252;27;20044;-71
2022/07/22 05:13:38;;;;;;;8.05;5.07;;;;;;;22.63;66.51;101297.81;5082831;27;20050;-72
2022/07/22 05:16:05;;;;;;;7.35;4.57;;;;;;;22.99;65.42;101298.88;5067059;27;20489;-72
2022/07/22 05:18:32;;;;;;;5.40;4.43;;;;;;;23.12;64.54;101291.38;5063202;28;20070;-71
2022/07/22 05:21:00;;;;;;;6.55;4.63;;;;;;;23.30;64.21;101299.47;5075900;28;20047;-71
2022/07/22 05:23:26;;;;;;;6.53;4.65;;;;;;;23.51;63.52;101288.53;5066256;28;20064;-71
2022/07/22 05:25:53;;;;;;;5.50;4.18;;;;;;;23.40;63.43;101296.72;5068360;28;20450;-71
2022/07/22 05:28:19;;;;;;;5.82;4.45;;;;;;;23.57;63.43;101293.31;5066851;28;20048;-71
2022/07/22 05:30:46;;;;;;;5.10;3.97;;;;;;;24.07;62.37;101289.16;5065177;28;20097;-71
2022/07/22 05:33:12;;;;;;;5.80;3.97;;;;;;;24.17;61.76;101289.94;5066661;28;20094;-71
2022/07/22 05:35:38;;;;;;;6.30;3.92;;;;;;;24.24;61.75;101290.19;5066201;28;20055;-71
2022/07/22 05:38:06;;;;;;;8.55;3.97;;;;;;;24.47;61.09;101301.25;5065935;28;20045;-71
2022/07/22 05:40:33;;;;;;;6.05;4.15;;;;;;;24.93;59.59;101300.13;5066090;28;20445;-71
2022/07/22 05:42:59;;;;;;;4.72;3.53;;;;;;;24.52;60.20;101296.28;5067081;28;20044;-71
2022/07/22 05:45:26;;;;;;;7.93;3.60;;;;;;;24.26;60.31;101298.06;5065514;28;20094;-71
2022/07/22 05:47:52;;;;;;;4.97;3.75;;;;;;;24.08;61.50;101288.16;5062281;28;20064;-71
2022/07/22 05:50:18;;;;;;;3.90;3.38;;;;;;;24.19;62.15;101300.53;5055139;28;20112;-71
2022/07/22 05:52:45;;;;;;;5.30;3.33;;;;;;;23.83;62.68;101305.00;5064080;28;20055;-71
2022/07/22 05:55:12;;;;;;;6.10;3.13;;;;;;;23.50;64.17;101311.78;5050170;28;20076;-71
2022/07/22 05:57:39;;;;;;;5.97;3.25;;;;;;;23.73;62.65;101315.75;5069815;28;20067;-71
2022/07/22 06:00:06;;;;;;;5.53;3.00;;;;;;;23.73;62.98;101312.22;5074249;27;20748;-71
2022/07/22 06:02:33;;;;;;;4.13;3.10;;;;;;;23.15;64.06;101320.50;5079487;27;20163;-71
2022/07/22 06:05:00;;;;;;;4.90;3.47;;;;;;;22.93;65.52;101317.34;5081406;27;20043;-71
2022/07/22 06:07:26;;;;;;;7.20;3.22;;;;;;;23.09;65.21;101320.25;5071516;27;20434;-72
2022/07/22 06:09:53;;;;;;;5.22;3.70;;;;;;;22.91;66.03;101320.16;5084007;27;20044;-71
2022/07/22 06:12:21;;;;;;;6.60;3.50;;;;;;;22.92;66.07;101321.84;5085477;27;20583;-71
2022/07/22 06:14:47;;;;;;;5.63;3.83;;;;;;;22.87;65.92;101318.78;5079020;27;20044;-71
2022/07/22 06:17:13;;;;;;;4.70;3.60;;;;;;;22.45;67.53;101328.06;5054364;28;20360;-71
2022/07/22 06:19:40;;;;;;;6.13;4.00;;;;;;;22.29;69.20;101332.16;5048049;28;20393;-71
2022/07/22 06:22:06;;;;;;;4.85;3.83;;;;;;;22.18;69.56;101326.09;5058520;28;20049;-72
2022/07/22 06:24:33;;;;;;;14.70;5.30;;;;;;;22.32;68.69;101342.53;5065795;28;20044;-72
2022/07/22 06:26:59;;;;;;;5.90;4.13;;;;;;;22.49;68.34;101340.16;5063116;28;20064;-72
2022/07/22 06:29:26;;;;;;;6.72;4.25;;;;;;;22.62;68.15;101336.22;5062378;28;20092;-72
2022/07/22 06:31:53;;;;;;;6.93;3.70;;;;;;;22.28;69.29;101333.13;5057429;28;20048;-72
2022/07/22 06:34:19;;;;;;;5.03;3.63;;;;;;;22.28;69.49;101338.47;5085200;27;20135;-72
2022/07/22 06:36:46;;;;;;;6.90;4.00;;;;;;;22.08;70.65;101343.94;5077398;27;20045;-72
2022/07/22 06:39:12;;;;;;;7.05;4.30;;;;;;;22.21;69.86;101337.34;5088291;27;20080;-71
2022/07/22 06:41:38;;;;;;;8.45;3.88;;;;;;;21.65;72.07;101357.59;5089307;27;20063;-72
2022/07/22 06:44:05;;;;;;;6.18;3.75;;;;;;;21.69;72.15;101343.81;5089947;27;20109;-72
2022/07/22 06:46:33;;;;;;;5.20;3.92;;;;;;;21.78;72.01;101347.50;5074912;27;20129;-72
2022/07/22 06:48:59;;;;;;;5.80;3.88;;;;;;;22.11;70.09;101339.16;5065899;28;20598;-71
2022/07/22 06:51:26;;;;;;;5.00;3.85;;;;;;;22.26;70.29;101340.44;5070558;28;20097;-72
2022/07/22 06:53:52;;;;;;;9.45;3.80;;;;;;;22.24;70.93;101354.94;5057696;28;20068;-72
2022/07/22 06:56:18;;;;;;;4.20;3.60;;;;;;;22.22;70.98;101351.53;5069488;28;20052;-72
2022/07/22 06:58:45;;;;;;;5.32;3.70;;;;;;;21.82;72.33;101356.94;5072537;27;20242;-72
2022/07/22 07:01:11;;;;;;;8.25;4.32;;;;;;;21.93;72.34;101351.50;5065531;28;20040;-72
2022/07/22 07:03:39;;;;;;;5.97;4.05;;;;;;;22.12;72.19;101350.69;5071760;28;20151;-72
2022/07/22 07:06:08;;;;;;;4.75;3.50;;;;;;;22.26;70.68;101355.63;5082912;27;20592;-72
2022/07/22 07:08:34;;;;;;;4.70;3.47;;;;;;;22.53;69.71;101350.44;5070334;27;20059;-72
2022/07/22 07:11:00;;;;;;;4.97;3.60;;;;;;;22.72;68.98;101353.13;5068610;28;20040;-72
2022/07/22 07:13:27;;;;;;;5.28;3.60;;;;;;;22.98;68.34;101355.19;5081467;27;20056;-72
2022/07/22 07:15:53;;;;;;;5.15;3.63;;;;;;;22.84;68.27;101351.13;5078374;27;20040;-72
2022/07/22 07:18:19;;;;;;;6.85;3.50;;;;;;;23.16;66.74;101348.13;5067875;27;20050;-72
2022/07/22 07:20:48;;;;;;;4.80;3.30;;;;;;;23.03;66.95;101351.09;5064000;27;20045;-72
2022/07/22 07:23:14;;;;;;;4.45;2.95;;;;;;;23.06;67.39;101356.16;5051881;28;20044;-72
2022/07/22 07:25:41;;;;;;;10.13;2.58;;;;;;;23.08;66.73;101356.00;5064069;28;20068;-72
2022/07/22 07:28:07;;;;;;;4.60;2.45;;;;;;;22.72;67.18;101360.31;5067572;28;20109;-72
2022/07/22 07:30:34;;;;;;;3.17;1.90;;;;;;;22.99;64.95;101354.19;5067130;28;20078;-70
2022/07/22 07:33:01;;;;;;;2.95;1.75;;;;;;;22.55;66.26;101356.47;5066583;28;20041;-70
2022/07/22 07:35:28;;;;;;;4.68;1.65;;;;;;;22.27;67.20;101354.66;5066813;28;20118;-70
2022/07/22 07:37:55;;;;;;;3.45;1.70;;;;;;;22.07;67.78;101364.47;5074419;27;20419;-70
2022/07/22 07:40:22;;;;;;;2.10;1.55;;;;;;;;;;5069711;27;20067;-70
2022/07/22 07:42:48;;;;;;;2.70;1.80;;;;;;;22.44;67.14;101363.78;5053221;27;20040;-70
2022/07/22 07:45:14;;;;;;;3.25;1.77;;;;;;;22.50;67.02;101365.91;5066201;28;20049;-70
2022/07/22 07:47:41;;;;;;;3.53;1.95;;;;;;;22.99;64.84;101371.09;5069856;28;20039;-72
2022/07/22 07:50:09;;;;;;;2.85;1.70;;;;;;;23.01;64.46;101369.13;5070824;28;20040;-70
2022/07/22 07:52:38;;;;;;;6.68;1.90;;;;;;;23.34;64.38;101366.91;5073323;28;20048;-70
2022/07/22 07:55:08;;;;;;;3.80;1.83;;;;;;;23.61;63.45;101370.47;5068525;28;20048;-70
2022/07/22 07:57:35;;;;;;;3.80;1.88;;;;;;;23.86;62.04;101368.13;5057600;28;20060;-71
2022/07/22 08:00:02;;;;;;;4.10;1.67;;;;;;;23.63;63.23;101367.66;5079063;27;20036;-70
2022/07/22 08:02:28;;;;;;;2.95;1.80;;;;;;;23.87;62.89;101375.16;5078347;27;20060;-70
2022/07/22 08:04:54;;;;;;;4.20;1.90;;;;;;;24.33;61.49;101371.50;5078525;27;20044;-70
2022/07/22 08:07:21;;;;;;;3.97;2.13;;;;;;;24.26;61.56;101376.63;5071624;27;20086;-70
2022/07/22 08:09:47;;;;;;;5.82;2.45;;;;;;;24.13;61.62;101377.00;5063457;27;20504;-69
2022/07/22 08:12:19;;;;;;;3.10;1.90;;;;;;;24.06;61.29;101381.22;5067009;28;20563;-70
2022/07/22 08:14:45;;;;;;;5.13;2.10;;;;;;;23.94;61.45;101382.47;5068132;28;20055;-70
2022/07/22 08:17:11;;;;;;;4.13;2.40;;;;;;;24.31;60.06;101378.84;5067070;28;20094;-70
2022/07/22 08:19:38;;;;;;;3.05;2.22;;;;;;;24.08;61.22;101379.25;5067974;28;20052;-70
2022/07/22 08:22:04;;;;;;;3.33;2.40;;;;;;;24.15;60.25;101377.69;5061681;28;20072;-70
2022/07/22 08:24:30;;;;;;;3.80;2.58;;;;;;;24.30;59.79;101382.53;5067411;28;20126;-72
2022/07/22 08:26:57;;;;;;;5.75;2.60;;;;;;;24.17;61.73;101386.41;5058502;28;20098;-71
2022/07/22 08:29:24;;;;;;;4.90;2.42;;;;;;;24.11;61.06;101389.69;5067114;28;20072;-70
2022/07/22 08:31:51;;;;;;;3.72;2.67;;;;;;;24.14;60.74;101392.06;5068414;28;20523;-69
2022/07/22 08:34:18;;;;;;;4.47;1.90;;;;;;;23.92;61.34;101411.22;5066753;28;20488;-70
2022/07/22 08:36:44;;;;;;;2.17;1.60;;;;;;;23.59;62.48;101393.91;5076766;27;20706;-70
2022/07/22 08:39:11;;;;;;;6.38;2.25;;;;;;;23.63;63.45;101399.81;5066636;28;20565;-70
2022/07/22 08:41:39;;;;;;;6.38;2.22;;;;;;;23.60;62.89;101411.66;5066191;28;20045;-70
2022/07/22 08:44:08;;;;;;;4.82;2.28;;;;;;;23.66;63.06;101410.22;5066698;28;20562;-70
2022/07/22 08:46:36;;;;;;;4.10;2.22;;;;;;;23.64;62.25;101409.53;5067466;28;20072;-70
2022/07/22 08:49:03;;;;;;;3.60;2.25;;;;;;;23.52;62.81;101408.88;5047059;28;20080;-70
2022/07/22 08:51:29;;;;;;;3.80;2.25;;;;;;;23.77;62.62;101405.50;5047072;28;20106;-70
2022/07/22 08:53:56;;;;;;;3.42;1.98;;;;;;;24.03;61.47;101411.00;5048703;28;20118;-70
2022/07/22 08:56:23;;;;;;;3.55;2.15;;;;;;;24.35;61.04;101409.72;5067578;28;20048;-69
2022/07/22 08:58:49;;;;;;;4.40;2.30;;;;;;;24.34;60.80;101406.19;5066622;28;20141;-69
2022/07/22 09:01:17;;;;;;;4.07;2.25;;;;;;;24.38;59.75;101406.75;5066967;28;20044;-69
2022/07/22 09:03:49;;;;;;;4.38;2.38;;;;;;;24.99;57.18;101413.00;5069590;28;20060;-69
2022/07/22 09:06:16;;;;;;;3.87;2.30;;;;;;;25.00;58.68;101400.44;5075140;27;20044;-69
2022/07/22 09:08:53;;;;;;;3.85;2.38;;;;;;;24.89;57.72;101400.69;5067508;28;20122;-69
2022/07/22 09:11:21;;;;;;;4.88;2.22;;;;;;;25.16;55.09;101397.88;5058455;28;20040;-69
2022/07/22 09:13:48;;;;;;;3.15;2.22;;;;;;;25.20;55.32;101394.69;5075811;27;20075;-69
2022/07/22 09:16:15;;;;;;;4.28;2.60;;;;;;;25.15;55.25;101402.41;5078395;27;20041;-69
2022/07/22 09:18:53;;;;;;;4.35;2.10;;;;;;;24.94;55.08;101407.28;5070293;27;20040;-69
2022/07/22 09:21:21;;;;;;;3.25;2.80;;;;;;;25.13;56.51;101398.16;5055980;28;20569;-69
2022/07/22 09:23:48;;;;;;;5.45;3.03;;;;;;;24.95;55.75;101403.59;5055941;28;20047;-69
2022/07/22 09:26:30;;;;;;;5.30;2.97;;;;;;;25.13;55.41;101404.38;5064010;28;20117;-69
2022/07/22 09:28:57;;;;;;;6.82;2.60;;;;;;;25.42;54.66;101395.19;5066169;28;20102;-69
2022/07/22 09:31:26;;;;;;;3.45;2.40;;;;;;;25.46;55.11;101399.25;5066850;28;20098;-69
2022/07/22 09:33:54;;;;;;;8.07;3.03;;;;;;;25.41;54.53;101390.81;5062761;28;20071;-69
2022/07/22 09:36:21;;;;;;;3.80;2.38;;;;;;;25.56;52.27;101394.63;5078850;28;20036;-69
2022/07/22 09:38:47;;;;;;;2.70;2.08;;;;;;;25.68;52.31;101393.34;5085606;28;20122;-69
2022/07/22 09:41:14;;;;;;;2.95;1.80;;;;;;;25.50;50.87;101401.44;5085694;28;20067;-69
2022/07/22 09:43:41;;;;;;;3.28;2.03;;;;;;;25.65;52.14;101396.31;5087889;28;20048;-69
2022/07/22 09:46:08;;;;;;;2.92;1.98;;;;;;;26.27;50.76;101399.63;5071040;28;20496;-69
2022/07/22 09:48:34;;;;;;;3.63;2.15;;;;;;;26.40;50.05;101400.81;5065688;28;20051;-69
2022/07/22 09:51:02;;;;;;;8.25;2.47;;;;;;;26.66;49.45;101405.19;5060539;28;20094;-68
2022/07/22 09:53:31;;;;;;;3.17;2.05;;;;;;;26.86;48.23;101396.66;5044628;28;20478;-68
2022/07/22 09:55:57;;;;;;;5.07;2.25;;;;;;;27.21;47.83;101410.75;5043378;28;20052;-68
2022/07/22 09:58:24;;;;;;;5.70;2.00;;;;;;;27.53;47.43;101416.13;5051304;28;20045;-68
2022/07/22 10:00:52;;;;;;;3.67;2.38;;;;;;;27.70;44.71;101408.81;5067926;27;20048;-68
2022/07/22 10:03:24;;;;;;;3.33;2.20;;;;;;;27.72;47.53;101414.84;5083044;27;20487;-68
2022/07/22 10:05:51;;;;;;;3.42;2.20;;;;;;;27.62;47.24;101414.22;5081121;27;20756;-68
2022/07/22 10:08:19;;;;;;;3.30;2.20;;;;;;;27.91;46.65;101403.66;5067152;28;20491;-68
2022/07/22 10:10:46;;;;;;;4.05;2.20;;;;;;;27.70;44.16;101415.03;5079585;27;20048;-68
2022/07/22 10:13:12;;;;;;;3.45;2.40;;;;;;;27.53;46.44;101413.41;5083861;27;20674;-68
2022/07/22 10:15:39;;;;;;;3.65;2.25;;;;;;;27.21;44.54;101406.22;5075231;27;20459;-68
2022/07/22 10:18:09;;;;;;;3.67;2.72;;;;;;;27.27;47.42;101415.47;5044300;28;20618;-68
2022/07/22 10:20:36;;;;;;;5.47;2.78;;;;;;;27.63;46.37;101416.75;5043451;28;20106;-67
2022/07/22 10:23:04;;;;;;;5.90;2.53;;;;;;;27.72;44.70;101409.44;5064132;28;20458;-67
2022/07/22 10:25:48;;;;;;;3.83;2.75;;;;;;;27.65;44.81;101413.84;5066475;28;20048;-68
2022/07/22 10:28:22;;;;;;;5.75;3.00;;;;;;;27.35;45.12;101396.56;5076845;27;20554;-68
2022/07/22 10:30:49;;;;;;;5.32;2.70;;;;;;;26.96;47.95;101405.41;5085682;27;20051;-68
2022/07/22 10:33:19;;;;;;;3.60;2.58;;;;;;;27.11;48.35;101402.88;5070069;27;20048;-68
2022/07/22 10:35:55;;;;;;;5.43;2.70;;;;;;;27.55;45.87;101396.06;5064678;28;20051;-68
2022/07/22 10:38:22;;;;;;;10.52;2.60;;;;;;;27.59;47.54;101404.63;5065943;28;20048;-68
2022/07/22 10:40:52;;;;;;;5.40;2.47;;;;;;;27.67;45.37;101395.69;5065040;28;20048;-68
2022/07/22 10:43:20;;;;;;;3.33;2.60;;;;;;;27.66;45.15;101402.06;5070419;27;20044;-69
2022/07/22 10:45:49;;;;;;;3.47;2.38;;;;;;;27.42;46.32;101397.59;5063959;28;20065;-68
2022/07/22 10:48:18;;;;;;;4.78;2.78;;;;;;;27.79;44.40;101395.09;5065990;28;20565;-68
2022/07/22 10:51:07;;;;;;;5.65;2.58;;;;;;;27.99;44.50;101400.91;5066925;28;20057;-68
2022/07/22 10:53:42;;;;;;;3.40;2.30;;;;;;;28.42;44.84;101394.09;5050369;28;20049;-68
2022/07/22 10:56:15;;;;;;;5.20;2.10;;;;;;;28.20;43.74;101403.00;5075975;27;20049;-67
2022/07/22 10:58:51;;;;;;;3.15;1.88;;;;;;;27.84;43.77;101394.59;5069351;27;20102;-68
2022/07/22 11:01:20;;;;;;;2.95;1.95;;;;;;;28.17;44.86;101387.19;5076195;27;20123;-68
2022/07/22 11:03:48;;;;;;;12.57;2.10;;;;;;;28.35;45.30;101382.34;5085658;27;20044;-68
2022/07/22 11:06:17;;;;;;;7.70;2.17;;;;;;;28.69;45.14;101390.06;5045993;28;20489;-68
2022/07/22 11:08:45;;;;;;;7.85;2.47;;;;;;;28.94;44.38;101380.72;5044977;28;20033;-69
2022/07/22 11:11:13;;;;;;;4.78;1.92;;;;;;;28.54;43.37;101387.28;5045272;28;20041;-68
2022/07/22 11:13:41;;;;;;;2.83;2.22;;;;;;;28.29;43.85;101385.78;5045612;28;20045;-68
2022/07/22 11:16:18;;;;;;;3.20;2.60;;;;;;;27.74;44.08;101386.72;5060944;28;20124;-68
2022/07/22 11:18:46;;;;;;;6.55;2.72;;;;;;;27.20;45.69;101390.25;5044772;28;20976;-68
2022/07/22 11:21:15;;;;;;;5.15;2.72;;;;;;;27.12;46.20;101384.88;5068537;28;20052;-68
2022/07/22 11:23:42;;;;;;;4.65;2.88;;;;;;;27.82;47.33;101388.53;5074462;27;20613;-67